createdAt,value
2023-02-27T00:00:14.734Z,-5.93
2023-02-27T00:02:42.958Z,-5.80
2023-02-27T00:05:11.966Z,-5.66
2023-02-27T00:07:39.888Z,-5.51
2023-02-27T00:10:10.883Z,-5.40
2023-02-27T00:12:39.059Z,-5.28
2023-02-27T00:15:09.818Z,-5.19
2023-02-27T00:17:39.286Z,-5.09
2023-02-27T00:20:13.509Z,-5.00
2023-02-27T00:22:43.043Z,-4.92
2023-02-27T00:25:12.171Z,-4.86
2023-02-27T00:27:40.837Z,-4.78
2023-02-27T00:30:13.061Z,-4.74
2023-02-27T00:32:42.032Z,-4.68
2023-02-27T00:35:12.009Z,-4.69
2023-02-27T00:37:41.002Z,-4.74
2023-02-27T00:40:10.127Z,-4.83
2023-02-27T00:42:38.145Z,-4.91
2023-02-27T00:45:07.336Z,-4.87
2023-02-27T00:47:36.769Z,-4.88
2023-02-27T00:50:06.082Z,-4.85
2023-02-27T00:52:34.735Z,-4.82
2023-02-27T00:55:03.445Z,-4.76
2023-02-27T00:57:31.491Z,-4.74
2023-02-27T00:59:59.238Z,-4.67
2023-02-27T01:02:27.169Z,-4.55
2023-02-27T01:04:56.865Z,-4.46
2023-02-27T01:07:24.663Z,-4.39
2023-02-27T01:09:52.468Z,-4.34
2023-02-27T01:12:20.349Z,-4.27
2023-02-27T01:14:48.136Z,-4.21
2023-02-27T01:17:15.908Z,-4.18
2023-02-27T01:19:43.782Z,-4.16
2023-02-27T01:22:13.385Z,-4.14
2023-02-27T01:24:41.272Z,-4.14
2023-02-27T01:27:09.326Z,-4.13
2023-02-27T01:29:37.389Z,-4.08
2023-02-27T01:32:05.358Z,-4.09
2023-02-27T01:34:34.323Z,-4.11
2023-02-27T01:37:02.200Z,-4.06
2023-02-27T01:39:32.869Z,-4.04
2023-02-27T01:42:01.045Z,-4.03
2023-02-27T01:44:30.093Z,-4.07
2023-02-27T01:46:58.350Z,-4.02
2023-02-27T01:49:30.570Z,-4.00
2023-02-27T01:52:05.765Z,-3.98
2023-02-27T01:54:38.917Z,-3.98
2023-02-27T01:57:07.733Z,-3.96
2023-02-27T01:59:36.770Z,-3.92
2023-02-27T02:02:08.360Z,-3.86
2023-02-27T02:04:39.150Z,-3.79
2023-02-27T02:07:10.007Z,-3.75
2023-02-27T02:09:43.422Z,-3.72
2023-02-27T02:12:14.941Z,-3.65
2023-02-27T02:14:42.832Z,-3.61
2023-02-27T02:17:16.317Z,-3.59
2023-02-27T02:20:38.140Z,-3.59
2023-02-27T02:23:36.832Z,-3.54
2023-02-27T02:26:33.244Z,-3.51
2023-02-27T02:29:35.817Z,-3.49
2023-02-27T02:32:48.768Z,-3.44
2023-02-27T02:35:58.763Z,-3.33
2023-02-27T02:39:04.640Z,-3.27
2023-02-27T02:41:42.980Z,-3.23
2023-02-27T02:44:25.944Z,-3.14
2023-02-27T02:47:03.031Z,-3.04
2023-02-27T02:49:41.853Z,-2.96
2023-02-27T02:52:15.269Z,-2.87
2023-02-27T02:54:49.009Z,-2.79
2023-02-27T02:57:20.792Z,-2.70
2023-02-27T02:59:55.752Z,-2.65
2023-02-27T03:02:28.181Z,-2.55
2023-02-27T03:05:00.331Z,-2.52
2023-02-27T03:07:34.379Z,-2.47
2023-02-27T03:10:08.607Z,-2.46
2023-02-27T03:12:40.132Z,-2.41
2023-02-27T03:15:15.536Z,-2.38
2023-02-27T03:17:48.615Z,-2.35
2023-02-27T03:20:20.012Z,-2.32
2023-02-27T03:22:51.816Z,-2.34
2023-02-27T03:25:21.586Z,-2.31
2023-02-27T03:27:53.649Z,-2.30
2023-02-27T03:30:26.850Z,-2.28
2023-02-27T03:32:59.991Z,-2.25
2023-02-27T03:35:37.932Z,-2.25
2023-02-27T03:38:13.174Z,-2.19
2023-02-27T03:40:50.650Z,-2.17
2023-02-27T03:43:22.422Z,-2.14
2023-02-27T03:45:57.278Z,-2.06
2023-02-27T03:48:25.560Z,-2.06
2023-02-27T03:50:53.596Z,-2.02
2023-02-27T03:53:29.533Z,-2.06
2023-02-27T03:56:02.029Z,-2.00
2023-02-27T03:58:31.097Z,-1.98
2023-02-27T04:00:59.104Z,-1.95
2023-02-27T04:03:27.970Z,-1.90
2023-02-27T04:05:55.818Z,-1.85
2023-02-27T04:08:44.029Z,-1.82
2023-02-27T04:11:42.320Z,-1.93
2023-02-27T04:14:33.546Z,-1.74
2023-02-27T04:17:17.327Z,-1.64
2023-02-27T04:20:10.464Z,-1.61
2023-02-27T04:22:43.133Z,-1.58
2023-02-27T04:25:32.975Z,-1.53
2023-02-27T04:28:13.196Z,-1.48
2023-02-27T04:30:49.011Z,-1.45
2023-02-27T04:33:25.453Z,-1.42
2023-02-27T04:35:55.889Z,-1.41
2023-02-27T04:38:30.741Z,-1.38
2023-02-27T04:41:02.345Z,-1.37
2023-02-27T04:43:34.182Z,-1.35
2023-02-27T04:46:04.374Z,-1.31
2023-02-27T04:48:37.526Z,-1.29
2023-02-27T04:51:10.986Z,-1.26
2023-02-27T04:53:44.466Z,-1.22
2023-02-27T04:56:17.190Z,-1.21
2023-02-27T04:58:50.413Z,-1.21
2023-02-27T05:01:24.137Z,-1.21
2023-02-27T05:03:56.070Z,-1.11
2023-02-27T05:06:31.454Z,-1.05
2023-02-27T05:09:07.543Z,-0.96
2023-02-27T05:11:40.955Z,-0.91
2023-02-27T05:14:17.913Z,-0.86
2023-02-27T05:16:52.370Z,-0.81
2023-02-27T05:19:21.689Z,-0.72
2023-02-27T05:21:57.297Z,-0.66
2023-02-27T05:24:34.119Z,-0.63
2023-02-27T05:27:19.704Z,-0.62
2023-02-27T05:29:52.533Z,-0.60
2023-02-27T05:32:30.460Z,-0.62
2023-02-27T05:35:07.763Z,-0.60
2023-02-27T05:37:41.949Z,-0.61
2023-02-27T05:40:14.859Z,-0.57
2023-02-27T05:42:48.309Z,-0.54
2023-02-27T05:45:21.403Z,-0.43
2023-02-27T05:47:56.694Z,-0.45
2023-02-27T05:50:27.494Z,-0.45
2023-02-27T05:52:58.674Z,-0.43
2023-02-27T05:55:31.451Z,-0.38
2023-02-27T05:58:05.284Z,-0.37
2023-02-27T06:00:38.645Z,-0.36
2023-02-27T06:03:06.932Z,-0.37
2023-02-27T06:05:34.952Z,-0.28
2023-02-27T06:08:02.709Z,-0.28
2023-02-27T06:10:30.645Z,-0.26
2023-02-27T06:12:58.367Z,-0.22
2023-02-27T06:15:26.301Z,-0.22
2023-02-27T06:17:56.381Z,-0.18
2023-02-27T06:20:24.134Z,-0.10
2023-02-27T06:22:51.961Z,0.01
2023-02-27T06:25:19.934Z,0.05
2023-02-27T06:27:47.621Z,0.04
2023-02-27T06:30:15.766Z,0.09
2023-02-27T06:32:43.580Z,0.12
2023-02-27T06:35:12.751Z,0.16
2023-02-27T06:37:40.907Z,0.22
2023-02-27T06:40:11.590Z,0.24
2023-02-27T06:42:39.436Z,0.25
2023-02-27T06:45:08.602Z,0.37
2023-02-27T06:47:36.493Z,0.42
2023-02-27T06:50:05.494Z,0.50
2023-02-27T06:52:34.878Z,0.61
2023-02-27T06:55:02.675Z,0.63
2023-02-27T06:57:30.407Z,0.62
2023-02-27T06:59:58.151Z,0.67
2023-02-27T07:02:26.655Z,0.74
2023-02-27T07:04:54.549Z,0.84
2023-02-27T07:07:35.029Z,0.93
2023-02-27T07:10:08.103Z,1.04
2023-02-27T07:12:35.963Z,1.23
2023-02-27T07:15:03.777Z,1.43
2023-02-27T07:17:33.155Z,1.63
2023-02-27T07:20:04.487Z,1.89
2023-02-27T07:22:33.366Z,2.03
2023-02-27T07:25:01.442Z,2.19
2023-02-27T07:27:33.544Z,2.33
2023-02-27T07:30:01.280Z,2.41
2023-02-27T07:32:31.260Z,2.52
2023-02-27T07:34:59.232Z,2.64
2023-02-27T07:37:28.227Z,2.60
2023-02-27T07:39:56.274Z,2.55
2023-02-27T07:42:24.060Z,2.67
2023-02-27T07:44:53.198Z,2.76
2023-02-27T07:47:21.090Z,2.88
2023-02-27T07:49:48.831Z,2.91
2023-02-27T07:52:16.628Z,3.03
2023-02-27T07:54:45.702Z,3.19
2023-02-27T07:57:13.678Z,3.22
2023-02-27T07:59:41.501Z,3.35
2023-02-27T08:02:11.531Z,3.48
2023-02-27T08:04:39.291Z,3.56
2023-02-27T08:07:07.213Z,3.67
2023-02-27T08:09:35.055Z,3.76
2023-02-27T08:12:03.244Z,3.74
2023-02-27T08:14:31.036Z,3.97
2023-02-27T08:17:00.231Z,4.06
2023-02-27T08:19:29.488Z,4.09
2023-02-27T08:21:57.454Z,4.18
2023-02-27T08:24:25.414Z,4.27
2023-02-27T08:26:53.222Z,4.32
2023-02-27T08:29:21.078Z,4.42
2023-02-27T08:31:48.979Z,4.49
2023-02-27T08:34:16.937Z,4.59
2023-02-27T08:36:46.484Z,4.62
2023-02-27T08:39:14.267Z,4.84
2023-02-27T08:41:42.009Z,4.93
2023-02-27T08:44:09.757Z,5.10
2023-02-27T08:46:37.566Z,5.13
2023-02-27T08:49:05.715Z,5.16
2023-02-27T08:51:33.845Z,5.32
2023-02-27T08:54:02.947Z,5.55
2023-02-27T08:56:30.729Z,5.70
2023-02-27T08:58:58.498Z,6.04
2023-02-27T09:01:28.452Z,6.21
2023-02-27T09:03:56.683Z,6.51
2023-02-27T09:06:26.260Z,6.47
2023-02-27T09:08:54.460Z,6.56
2023-02-27T09:11:23.885Z,6.69
2023-02-27T09:13:52.807Z,6.72
2023-02-27T09:16:20.791Z,6.74
2023-02-27T09:18:51.105Z,6.88
2023-02-27T09:21:20.445Z,6.98
2023-02-27T09:23:48.310Z,7.30
2023-02-27T09:26:17.085Z,7.17
2023-02-27T09:28:46.279Z,7.25
2023-02-27T09:31:14.169Z,7.41
2023-02-27T09:33:42.489Z,7.53
2023-02-27T09:36:10.344Z,7.35
2023-02-27T09:38:41.206Z,7.51
2023-02-27T09:41:29.270Z,7.52
2023-02-27T09:43:58.915Z,7.88
2023-02-27T09:46:26.984Z,8.01
2023-02-27T09:48:58.277Z,8.32
2023-02-27T09:51:27.529Z,8.53
2023-02-27T09:53:58.347Z,8.75
2023-02-27T09:56:30.381Z,8.88
2023-02-27T09:59:06.308Z,8.70
2023-02-27T10:01:38.346Z,8.74
2023-02-27T10:04:25.478Z,8.58
2023-02-27T10:06:57.478Z,8.79
2023-02-27T10:09:34.742Z,8.92
2023-02-27T10:12:14.709Z,9.16
2023-02-27T10:14:48.747Z,9.36
2023-02-27T10:17:22.458Z,9.34
2023-02-27T10:19:52.337Z,9.74
2023-02-27T10:22:25.152Z,10.42
2023-02-27T10:24:58.845Z,10.86
2023-02-27T10:27:26.690Z,11.18
2023-02-27T10:30:09.641Z,11.38
2023-02-27T10:32:40.958Z,12.66
2023-02-27T10:35:11.190Z,13.72
2023-02-27T10:37:53.176Z,15.25
2023-02-27T10:40:24.958Z,16.65
2023-02-27T10:42:54.099Z,17.87
2023-02-27T10:45:23.182Z,18.50
2023-02-27T10:47:51.039Z,19.04
2023-02-27T10:50:25.718Z,20.78
2023-02-27T10:52:55.458Z,21.00
2023-02-27T10:55:27.508Z,21.74
2023-02-27T10:57:57.698Z,21.54
2023-02-27T11:00:39.421Z,21.11
2023-02-27T11:03:08.462Z,21.37
2023-02-27T11:05:38.259Z,21.63
2023-02-27T11:08:20.601Z,22.35
2023-02-27T11:11:00.709Z,21.74
2023-02-27T11:13:30.589Z,21.41
2023-02-27T11:16:15.044Z,22.03
2023-02-27T11:18:44.433Z,21.91
2023-02-27T11:21:19.642Z,21.81
2023-02-27T11:24:02.362Z,22.52
2023-02-27T11:26:34.109Z,21.36
2023-02-27T11:29:18.492Z,22.34
2023-02-27T11:31:52.058Z,22.85
2023-02-27T11:34:24.896Z,21.93
2023-02-27T11:36:55.509Z,21.78
2023-02-27T11:39:27.432Z,20.95
2023-02-27T11:41:57.894Z,20.51
2023-02-27T11:44:38.678Z,20.07
2023-02-27T11:47:24.364Z,20.23
2023-02-27T11:50:36.814Z,21.76
2023-02-27T11:53:25.325Z,21.16
2023-02-27T11:55:56.547Z,20.21
2023-02-27T11:58:29.429Z,20.41
2023-02-27T12:01:02.602Z,19.72
2023-02-27T12:03:41.983Z,20.19
2023-02-27T12:06:19.011Z,19.75
2023-02-27T12:08:52.253Z,20.16
2023-02-27T12:11:28.253Z,20.19
2023-02-27T12:14:03.944Z,20.48
2023-02-27T12:16:37.378Z,20.19
2023-02-27T12:19:19.368Z,19.77
2023-02-27T12:21:50.722Z,19.22
2023-02-27T12:24:24.646Z,18.29
2023-02-27T12:26:59.029Z,18.21
2023-02-27T12:29:31.300Z,17.75
2023-02-27T12:32:02.905Z,17.53
2023-02-27T12:34:39.675Z,16.82
2023-02-27T12:37:12.812Z,16.58
2023-02-27T12:39:43.094Z,16.63
2023-02-27T12:42:58.183Z,16.00
2023-02-27T12:45:57.120Z,15.62
2023-02-27T12:48:36.812Z,15.62
2023-02-27T12:51:19.810Z,15.82
2023-02-27T12:53:59.976Z,16.53
2023-02-27T12:56:40.641Z,16.86
2023-02-27T12:59:23.227Z,16.78
2023-02-27T13:01:59.294Z,17.31
2023-02-27T13:04:33.392Z,17.57
2023-02-27T13:07:09.711Z,17.62
2023-02-27T13:09:46.490Z,18.11
2023-02-27T13:12:25.025Z,19.13
2023-02-27T13:15:00.744Z,19.58
2023-02-27T13:17:36.266Z,19.93
2023-02-27T13:20:27.784Z,20.93
2023-02-27T13:23:09.524Z,19.93
2023-02-27T13:25:45.840Z,19.95
2023-02-27T13:28:17.703Z,19.83
2023-02-27T13:30:53.814Z,20.50
2023-02-27T13:33:30.495Z,20.99
2023-02-27T13:36:07.022Z,20.27
2023-02-27T13:38:43.727Z,19.59
2023-02-27T13:41:38.307Z,19.39
2023-02-27T13:44:49.467Z,18.57
2023-02-27T13:47:47.835Z,18.79
2023-02-27T13:50:48.947Z,18.40
2023-02-27T13:53:20.312Z,18.60
2023-02-27T13:55:50.301Z,18.93
2023-02-27T13:58:23.329Z,19.75
2023-02-27T14:01:01.676Z,19.05
2023-02-27T14:03:32.295Z,18.61
2023-02-27T14:06:04.796Z,18.35
2023-02-27T14:08:47.635Z,18.05
2023-02-27T14:11:29.258Z,18.21
2023-02-27T14:14:06.807Z,18.87
2023-02-27T14:16:58.212Z,19.40
2023-02-27T14:19:57.031Z,19.21
2023-02-27T14:23:03.400Z,19.29
2023-02-27T14:25:36.320Z,19.29
2023-02-27T14:28:05.782Z,19.15
2023-02-27T14:30:37.334Z,19.41
2023-02-27T14:33:33.695Z,19.27
2023-02-27T14:36:11.047Z,19.34
2023-02-27T14:38:39.830Z,19.68
2023-02-27T14:41:18.581Z,18.67
2023-02-27T14:43:55.110Z,18.15
2023-02-27T14:46:26.467Z,17.70
2023-02-27T14:48:55.997Z,16.75
2023-02-27T14:51:25.487Z,15.62
2023-02-27T14:54:05.226Z,14.59
2023-02-27T14:56:34.379Z,14.24
2023-02-27T14:59:05.305Z,13.53
2023-02-27T15:01:37.651Z,13.47
2023-02-27T15:04:08.108Z,12.46
2023-02-27T15:06:42.796Z,12.10
2023-02-27T15:09:22.164Z,10.98
2023-02-27T15:12:01.549Z,10.22
2023-02-27T15:14:36.546Z,9.62
2023-02-27T15:17:05.373Z,9.34
2023-02-27T15:19:33.285Z,9.27
2023-02-27T15:22:21.357Z,8.86
2023-02-27T15:24:57.189Z,8.45
2023-02-27T15:27:30.106Z,8.46
2023-02-27T15:30:00.959Z,8.21
2023-02-27T15:32:36.982Z,8.10
2023-02-27T15:35:07.447Z,7.95
2023-02-27T15:37:35.818Z,7.34
2023-02-27T15:40:05.907Z,7.26
2023-02-27T15:42:37.443Z,7.11
2023-02-27T15:45:08.653Z,7.04
2023-02-27T15:47:36.896Z,6.90
2023-02-27T15:50:11.156Z,6.72
2023-02-27T15:52:43.567Z,6.50
2023-02-27T15:55:15.231Z,6.21
2023-02-27T15:57:56.596Z,5.96
2023-02-27T16:00:35.192Z,5.67
2023-02-27T16:03:03.234Z,5.49
2023-02-27T16:05:35.453Z,5.37
2023-02-27T16:08:03.829Z,5.23
2023-02-27T16:10:36.795Z,5.03
2023-02-27T16:13:23.792Z,4.71
2023-02-27T16:16:03.618Z,4.50
2023-02-27T16:18:35.873Z,4.26
2023-02-27T16:21:12.553Z,4.03
2023-02-27T16:23:40.657Z,3.86
2023-02-27T16:26:24.033Z,3.67
2023-02-27T16:28:54.024Z,3.50
2023-02-27T16:31:27.615Z,3.36
2023-02-27T16:33:57.328Z,3.37
2023-02-27T16:36:27.279Z,3.40
2023-02-27T16:38:55.801Z,3.23
2023-02-27T16:41:25.633Z,3.27
2023-02-27T16:43:54.698Z,3.08
2023-02-27T16:46:24.019Z,2.87
2023-02-27T16:48:53.307Z,2.64
2023-02-27T16:51:24.352Z,2.54
2023-02-27T16:53:53.737Z,2.36
2023-02-27T16:56:36.089Z,2.29
2023-02-27T16:59:05.900Z,2.01
2023-02-27T17:01:35.132Z,2.06
2023-02-27T17:04:05.249Z,2.00
2023-02-27T17:06:36.421Z,1.87
2023-02-27T17:09:04.755Z,1.71
2023-02-27T17:11:32.529Z,1.65
2023-02-27T17:14:00.340Z,1.54
2023-02-27T17:16:28.374Z,1.61
2023-02-27T17:18:57.812Z,1.59
2023-02-27T17:21:25.746Z,1.50
2023-02-27T17:23:53.526Z,1.47
2023-02-27T17:26:21.544Z,1.61
2023-02-27T17:28:49.415Z,1.63
2023-02-27T17:31:22.781Z,1.64
2023-02-27T17:33:51.122Z,1.68
2023-02-27T17:36:21.780Z,1.72
2023-02-27T17:38:49.915Z,1.69
2023-02-27T17:41:18.221Z,1.64
2023-02-27T17:43:51.062Z,1.67
2023-02-27T17:46:18.958Z,1.69
2023-02-27T17:48:46.850Z,1.69
2023-02-27T17:51:16.240Z,1.65
2023-02-27T17:53:46.124Z,1.68
2023-02-27T17:56:15.471Z,1.60
2023-02-27T17:58:45.383Z,1.63
2023-02-27T18:01:15.153Z,1.48
2023-02-27T18:03:44.089Z,1.41
2023-02-27T18:06:11.875Z,1.28
2023-02-27T18:08:39.835Z,1.18
2023-02-27T18:11:12.380Z,1.04
2023-02-27T18:13:41.399Z,1.17
2023-02-27T18:16:10.606Z,1.14
2023-02-27T18:18:38.804Z,1.02
2023-02-27T18:21:09.260Z,1.12
2023-02-27T18:23:37.489Z,1.11
2023-02-27T18:26:07.022Z,1.07
2023-02-27T18:28:36.287Z,0.98
2023-02-27T18:31:04.206Z,0.98
2023-02-27T18:33:31.936Z,0.91
2023-02-27T18:35:59.771Z,0.89
2023-02-27T18:38:27.709Z,0.86
2023-02-27T18:40:55.873Z,0.86
2023-02-27T18:43:23.645Z,0.95
2023-02-27T18:45:53.055Z,0.92
2023-02-27T18:48:20.895Z,0.99
2023-02-27T18:50:48.872Z,0.96
2023-02-27T18:53:16.658Z,0.77
2023-02-27T18:55:44.425Z,0.70
2023-02-27T18:58:12.267Z,0.63
2023-02-27T19:00:42.328Z,0.66
2023-02-27T19:03:11.646Z,0.54
2023-02-27T19:05:42.320Z,0.47
2023-02-27T19:08:10.114Z,0.56
2023-02-27T19:10:39.369Z,0.70
2023-02-27T19:13:09.421Z,0.76
2023-02-27T19:15:37.330Z,0.69
2023-02-27T19:18:05.454Z,0.73
2023-02-27T19:20:35.214Z,0.74
2023-02-27T19:23:02.980Z,0.74
2023-02-27T19:25:30.710Z,0.81
2023-02-27T19:28:00.368Z,0.78
2023-02-27T19:30:28.221Z,0.83
2023-02-27T19:32:55.973Z,0.89
2023-02-27T19:35:24.057Z,0.93
2023-02-27T19:37:58.108Z,0.92
2023-02-27T19:40:28.210Z,0.81
2023-02-27T19:42:56.378Z,0.72
2023-02-27T19:45:28.983Z,0.80
2023-02-27T19:47:56.836Z,0.83
2023-02-27T19:50:25.230Z,0.92
2023-02-27T19:52:54.409Z,0.94
2023-02-27T19:55:22.192Z,0.97
2023-02-27T19:57:49.954Z,1.01
2023-02-27T20:00:19.824Z,1.02
2023-02-27T20:02:47.980Z,1.08
2023-02-27T20:05:15.711Z,1.03
2023-02-27T20:07:43.619Z,1.23
2023-02-27T20:10:13.786Z,1.26
2023-02-27T20:12:41.642Z,1.38
2023-02-27T20:15:11.753Z,1.46
2023-02-27T20:17:41.952Z,1.58
2023-02-27T20:20:11.207Z,1.61
2023-02-27T20:22:39.175Z,1.79
2023-02-27T20:25:07.651Z,1.68
2023-02-27T20:27:36.770Z,1.46
2023-02-27T20:30:05.288Z,1.25
2023-02-27T20:32:33.129Z,0.95
2023-02-27T20:35:00.929Z,0.77
2023-02-27T20:37:31.903Z,0.61
2023-02-27T20:39:59.697Z,0.33
2023-02-27T20:42:30.145Z,0.19
2023-02-27T20:44:59.410Z,0.08
2023-02-27T20:47:27.280Z,0.14
2023-02-27T20:49:58.790Z,0.04
2023-02-27T20:52:27.344Z,-0.08
2023-02-27T20:54:55.318Z,-0.14
2023-02-27T20:57:23.074Z,-0.13
2023-02-27T20:59:51.117Z,-0.08
2023-02-27T21:02:20.272Z,0.11
2023-02-27T21:04:49.454Z,0.14
2023-02-27T21:07:21.316Z,0.01
2023-02-27T21:09:49.464Z,-0.13
2023-02-27T21:12:18.143Z,-0.12
2023-02-27T21:14:46.628Z,-0.10
2023-02-27T21:17:14.428Z,-0.12
2023-02-27T21:19:43.620Z,-0.20
2023-02-27T21:22:11.459Z,-0.36
2023-02-27T21:24:39.249Z,-0.42
2023-02-27T21:27:07.236Z,-0.35
2023-02-27T21:29:35.017Z,-0.23
2023-02-27T21:32:02.883Z,-0.22
2023-02-27T21:34:31.492Z,-0.17
2023-02-27T21:37:02.341Z,-0.25
2023-02-27T21:39:30.342Z,-0.31
2023-02-27T21:41:59.547Z,-0.31
2023-02-27T21:44:27.440Z,-0.27
2023-02-27T21:46:55.592Z,-0.27
2023-02-27T21:49:25.465Z,-0.26
2023-02-27T21:51:56.619Z,-0.19
2023-02-27T21:54:25.799Z,-0.12
2023-02-27T21:56:53.559Z,-0.13
2023-02-27T21:59:21.718Z,-0.12
2023-02-27T22:01:49.779Z,-0.11
2023-02-27T22:04:19.406Z,-0.14
2023-02-27T22:06:48.308Z,-0.27
2023-02-27T22:09:16.447Z,-0.19
2023-02-27T22:11:46.077Z,-0.08
2023-02-27T22:14:14.155Z,0.00
2023-02-27T22:16:42.605Z,-0.01
2023-02-27T22:19:12.420Z,-0.11
2023-02-27T22:21:41.169Z,-0.25
2023-02-27T22:24:09.240Z,-0.33
2023-02-27T22:26:37.430Z,-0.33
2023-02-27T22:29:07.302Z,-0.61
2023-02-27T22:31:37.445Z,-0.51
2023-02-27T22:34:07.699Z,-0.23
2023-02-27T22:36:36.947Z,0.01
2023-02-27T22:39:05.982Z,0.21
2023-02-27T22:41:35.632Z,0.33
2023-02-27T22:44:06.895Z,0.45
2023-02-27T22:46:36.986Z,0.54
2023-02-27T22:49:08.131Z,0.46
2023-02-27T22:51:36.300Z,0.38
2023-02-27T22:54:05.857Z,0.19
2023-02-27T22:56:34.215Z,0.09
2023-02-27T22:59:01.967Z,-0.08
2023-02-27T23:01:33.234Z,-0.12
2023-02-27T23:04:02.462Z,-0.08
2023-02-27T23:06:32.623Z,0.04
2023-02-27T23:09:01.568Z,0.20
2023-02-27T23:11:29.670Z,0.29
2023-02-27T23:13:57.757Z,0.26
2023-02-27T23:16:25.876Z,0.22
2023-02-27T23:18:56.908Z,0.14
2023-02-27T23:21:29.671Z,-0.02
2023-02-27T23:23:58.499Z,-0.22
2023-02-27T23:26:28.525Z,-0.37
2023-02-27T23:28:56.683Z,-0.46
2023-02-27T23:31:24.960Z,-0.51
2023-02-27T23:33:52.930Z,-0.57
2023-02-27T23:36:22.079Z,-0.51
2023-02-27T23:38:50.225Z,-0.50
2023-02-27T23:41:20.616Z,-0.49
2023-02-27T23:43:52.623Z,-0.56
2023-02-27T23:46:21.380Z,-0.60
2023-02-27T23:48:49.474Z,-0.65
2023-02-27T23:51:17.832Z,-0.66
2023-02-27T23:53:46.997Z,-0.86
2023-02-27T23:56:17.108Z,-0.90
2023-02-27T23:58:45.317Z,-1.00
